Merrick Jones — WDF4890 — position and weather

sailwx.info

Track history (hours):
 
Tides and Currents Weather Stations Pressure Air Temp Water Temp Dewpoint Dewpoint Depression Visibility Wind Speed Wind Dir Waves Ship Positions

Merrick Jones

Owner: Canal Barge Company, Inc., Belle Chasse, LA. More information available from US FCC via Universal Licensing System and Coast Guard Vessel Documentation Center.

Last reported at 2018-Apr-16 20:49 UTC. Time now 2018-Apr-23 07:52 UTC.
Position N 32°40' W 091°08'.

Length 47 m; draft 10 m.

Type: Towing. MMSI: 367456930.

Date/timePositionNaut miles runAvg speedWind from/ knotsBaromVisibWave heightAir tempDewpointWater temp
2018-Apr-16 20:49N 32°40' W 091°08'4 4.5
2018-Apr-16 20:01N 32°36' W 091°08'0 4.6
2018-Apr-16 19:59N 32°36' W 091°08'3 4.4
2018-Apr-16 19:13N 32°33' W 091°06'1 4.6
2018-Apr-16 19:00N 32°32' W 091°06'2 4.8
2018-Apr-16 18:30N 32°30' W 091°07'2 3.6
2018-Apr-16 18:00N 32°28' W 091°06'3 4.5
2018-Apr-16 17:24N 32°27' W 091°04'2 4.3
2018-Apr-16 17:00N 32°26' W 091°02'1 1.7
2018-Apr-16 16:30N 32°26' W 091°01'2 4.0
2018-Apr-16 16:00N 32°24' W 090°60'3 5.2
2018-Apr-16 15:30N 32°22' W 091°00'2 4.0
2018-Apr-16 15:00N 32°21' W 090°58'2 3.7
2018-Apr-16 14:30N 32°21' W 090°56'2 4.1
2018-Apr-16 14:00N 32°20' W 090°54'2 4.8
2018-Apr-16 13:30N 32°18' W 090°56'0 1.0
2018-Apr-16 13:00N 32°17' W 090°56'0 0.6
2018-Apr-16 12:30N 32°17' W 090°57'2 4.0
2018-Apr-16 12:00N 32°16' W 090°58'2 4.9
2018-Apr-16 11:30N 32°13' W 090°59'2 4.9
2018-Apr-16 11:00N 32°11' W 090°60'2 4.4
2018-Apr-16 10:30N 32°09' W 091°00'2 4.0
2018-Apr-16 09:56N 32°07' W 091°02'3 5.0
2018-Apr-16 09:17N 32°08' W 091°06'  
2018-Apr-14 02:25N 32°01' W 091°05'4 8.6
2018-Apr-14 01:54N 32°05' W 091°05'3 5.9
2018-Apr-14 01:27N 32°08' W 091°05'4 8.5
2018-Apr-14 00:59N 32°09' W 091°00'510.4
2018-Apr-14 00:30N 32°14' W 090°59'5 9.1
2018-Apr-14 00:00N 32°18' W 090°56'1 1.8
2018-Apr-13 23:30N 32°18' W 090°55'0 0.0
2018-Apr-13 23:00N 32°18' W 090°55'0 0.0
2018-Apr-13 22:30N 32°18' W 090°55'0 0.0
2018-Apr-13 22:00N 32°18' W 090°55'0 0.0
2018-Apr-13 21:30N 32°18' W 090°55'0 0.0
2018-Apr-13 21:00N 32°18' W 090°55'0 0.0
2018-Apr-13 20:30N 32°18' W 090°55'0 0.0
2018-Apr-13 20:00N 32°18' W 090°55'0 0.0
2018-Apr-13 19:30N 32°18' W 090°55'0 0.0
2018-Apr-13 19:00N 32°18' W 090°55'0 0.1
2018-Apr-13 18:30N 32°18' W 090°55'2 4.8
2018-Apr-13 18:00N 32°20' W 090°55'5 9.4
2018-Apr-13 17:30N 32°21' W 090°60'4 8.1
2018-Apr-13 17:00N 32°25' W 091°01'5 9.7
2018-Apr-13 16:30N 32°28' W 091°06'6 9.1
2018-Apr-13 15:51N 32°34' W 091°06'4 9.3
2018-Apr-13 15:26N 32°37' W 091°09'  
Track history (hours):
 
Tides and Currents Weather Stations Pressure Air Temp Water Temp Dewpoint Dewpoint Depression Visibility Wind Speed Wind Dir Waves Ship Positions

Merrick Jones

Owner: Canal Barge Company, Inc., Belle Chasse, LA. More information available from US FCC via Universal Licensing System and Coast Guard Vessel Documentation Center.

Last reported at 2018-Apr-16 20:49 UTC. Time now 2018-Apr-23 07:52 UTC.
Position N 32°40' W 091°08'.

Length 47 m; draft 10 m.

Type: Towing. MMSI: 367456930.

Date/timePositionNaut miles runAvg speedWind from/ knotsBaromVisibWave heightAir tempDewpointWater temp
2018-Apr-16 20:49N 32°40' W 091°08'4 4.5
2018-Apr-16 20:01N 32°36' W 091°08'0 4.6
2018-Apr-16 19:59N 32°36' W 091°08'3 4.4
2018-Apr-16 19:13N 32°33' W 091°06'1 4.6
2018-Apr-16 19:00N 32°32' W 091°06'2 4.8
2018-Apr-16 18:30N 32°30' W 091°07'2 3.6
2018-Apr-16 18:00N 32°28' W 091°06'3 4.5
2018-Apr-16 17:24N 32°27' W 091°04'2 4.3
2018-Apr-16 17:00N 32°26' W 091°02'1 1.7
2018-Apr-16 16:30N 32°26' W 091°01'2 4.0
2018-Apr-16 16:00N 32°24' W 090°60'3 5.2
2018-Apr-16 15:30N 32°22' W 091°00'2 4.0
2018-Apr-16 15:00N 32°21' W 090°58'2 3.7
2018-Apr-16 14:30N 32°21' W 090°56'2 4.1
2018-Apr-16 14:00N 32°20' W 090°54'2 4.8
2018-Apr-16 13:30N 32°18' W 090°56'0 1.0
2018-Apr-16 13:00N 32°17' W 090°56'0 0.6
2018-Apr-16 12:30N 32°17' W 090°57'2 4.0
2018-Apr-16 12:00N 32°16' W 090°58'2 4.9
2018-Apr-16 11:30N 32°13' W 090°59'2 4.9
2018-Apr-16 11:00N 32°11' W 090°60'2 4.4
2018-Apr-16 10:30N 32°09' W 091°00'2 4.0
2018-Apr-16 09:56N 32°07' W 091°02'3 5.0
2018-Apr-16 09:17N 32°08' W 091°06'  
2018-Apr-14 02:25N 32°01' W 091°05'4 8.6
2018-Apr-14 01:54N 32°05' W 091°05'3 5.9
2018-Apr-14 01:27N 32°08' W 091°05'4 8.5
2018-Apr-14 00:59N 32°09' W 091°00'510.4
2018-Apr-14 00:30N 32°14' W 090°59'5 9.1
2018-Apr-14 00:00N 32°18' W 090°56'1 1.8
2018-Apr-13 23:30N 32°18' W 090°55'0 0.0
2018-Apr-13 23:00N 32°18' W 090°55'0 0.0
2018-Apr-13 22:30N 32°18' W 090°55'0 0.0
2018-Apr-13 22:00N 32°18' W 090°55'0 0.0
2018-Apr-13 21:30N 32°18' W 090°55'0 0.0
2018-Apr-13 21:00N 32°18' W 090°55'0 0.0
2018-Apr-13 20:30N 32°18' W 090°55'0 0.0
2018-Apr-13 20:00N 32°18' W 090°55'0 0.0
2018-Apr-13 19:30N 32°18' W 090°55'0 0.0
2018-Apr-13 19:00N 32°18' W 090°55'0 0.1
2018-Apr-13 18:30N 32°18' W 090°55'2 4.8
2018-Apr-13 18:00N 32°20' W 090°55'5 9.4
2018-Apr-13 17:30N 32°21' W 090°60'4 8.1
2018-Apr-13 17:00N 32°25' W 091°01'5 9.7
2018-Apr-13 16:30N 32°28' W 091°06'6 9.1
2018-Apr-13 15:51N 32°34' W 091°06'4 9.3
2018-Apr-13 15:26N 32°37' W 091°09'  

Dump ship's entire track history